SBOSBO PUJ / MDPC
Speedbird OnlineSpeedbird Online PUJ / MDPC

Punta Cana International Airport
09:08 26°C

Location Punta Cana, Dominican Republic
Latitude: 18.567399978599997
Longitude: -68.36340332030001
Web Wikipedia
Altitude 14 Meter / 47 Feet
Distance 6,922 KM / 4,301 Miles
from London.
Time Zone UTC -4 hours (America/Santo_Domingo)
Codes IATA: PUJ
ICAO: MDPC
Currency £1 equals DOP 69.97
Runways
RunwayLength (m)Surface
083100Asphalt
093100Asphalt
263100Asphalt
273100Asphalt
Radio
TypeDescriptionFrequency
A/DAPP119.7
APPLAS AMERICAS APP119.3
ATIS132.85
DLVDELIVERY121.65
GNDGROUND121.9
TWRTWR118.8
Live ATC
METAR MDPC 311200Z 03010KT 9999 SCT018 25/20 Q1018 RESHRA
TAF TAF MDPC 311000Z 3112/0112 03015KT 9999 SCT016 BECMG 3113/3115 FEW025
Weather As Of 31 Jan 2023 09:03
Description Scattered clouds
Wind 19 km/h from North-East (30°)
Cloud Cover 40%
Precipitation Rain: none, Snow: none
Sunrise 07:07
Sunset 18:26
Rotations During the last 90 days there were
36 flights from LGW



Support Speedbird Online

© 2017-2023 Speedbird Online